Wetterdaten: Woche 29.12.14 - 04.01.15 (KW1)
Datum Zeit Temp. A. Feuchte A. Luftdruck Regen Wind Richtung Taupunkt Windchill Windben
29.12.2014 00:00 -6,0 C 73 % 1025,7 hPa 0,0 l/m 14,8 km/h N -10,1 C -14,1 C 31,0 km/h
29.12.2014 01:00 -6,0 C 72 % 1025,6 hPa 0,0 l/m 11,1 km/h N -10,2 C -11,0 C 31,8 km/h
29.12.2014 02:00 -6,1 C 72 % 1026,3 hPa 0,0 l/m 11,8 km/h N -10,4 C -11,8 C 28,6 km/h
29.12.2014 03:00 -6,1 C 72 % 1026,2 hPa 0,0 l/m 15,9 km/h N -10,3 C -14,8 C 36,2 km/h
29.12.2014 04:00 -5,8 C 73 % 1026,2 hPa 0,0 l/m 16,8 km/h N -9,9 C -15,1 C 38,2 km/h
29.12.2014 05:00 -5,1 C 70 % 1026,4 hPa 0,0 l/m 15,0 km/h N -9,7 C -13,1 C 31,8 km/h
29.12.2014 06:00 -4,9 C 69 % 1026,1 hPa 0,0 l/m 11,9 km/h N -9,7 C -10,5 C 31,0 km/h
29.12.2014 07:00 -5,2 C 68 % 1025,9 hPa 0,0 l/m 12,0 km/h N -10,2 C -10,9 C 32,6 km/h
29.12.2014 08:00 -5,3 C 68 % 1026,1 hPa 0,0 l/m 11,1 km/h N -10,2 C -10,2 C 33,8 km/h
29.12.2014 09:00 -5,0 C 67 % 1025,9 hPa 0,0 l/m 13,5 km/h N -10,2 C -12,0 C 37,4 km/h
29.12.2014 10:00 -4,9 C 76 % 1025,8 hPa 0,0 l/m 13,4 km/h N -8,5 C -11,8 C 33,0 km/h
29.12.2014 11:00 -5,2 C 84 % 1025,6 hPa 0,0 l/m 12,9 km/h N -7,5 C -11,7 C 32,6 km/h
29.12.2014 12:00 -4,8 C 84 % 1025,3 hPa 0,0 l/m 12,6 km/h N -7,2 C -10,9 C 33,8 km/h
29.12.2014 13:00 -4,6 C 83 % 1024,7 hPa 0,0 l/m 14,0 km/h N -7,0 C -11,8 C 36,6 km/h
29.12.2014 14:00 -4,8 C 82 % 1025,1 hPa 0,0 l/m 10,3 km/h N -7,4 C -9,0 C 30,2 km/h
29.12.2014 15:00 -4,9 C 81 % 1025,6 hPa 0,0 l/m 9,7 km/h N -7,6 C -8,5 C 28,6 km/h
29.12.2014 16:00 -4,9 C 81 % 1026,8 hPa 0,0 l/m 6,0 km/h N -7,7 C -5,8 C 19,3 km/h
29.12.2014 17:00 -4,6 C 80 % 1027,2 hPa 0,0 l/m 10,2 km/h N -7,5 C -8,6 C 25,4 km/h
29.12.2014 18:00 -4,5 C 82 % 1027,9 hPa 0,0 l/m 9,5 km/h N -7,1 C -7,8 C 22,5 km/h
29.12.2014 19:00 -4,7 C 83 % 1028,9 hPa 0,0 l/m 7,8 km/h N -7,1 C -6,3 C 20,1 km/h
29.12.2014 20:00 -4,8 C 83 % 1030,0 hPa 0,0 l/m 5,3 km/h N -7,3 C -4,8 C 18,1 km/h
29.12.2014 21:00 -4,3 C 79 % 1030,5 hPa 0,0 l/m 7,6 km/h N -7,4 C -5,7 C 21,3 km/h
29.12.2014 22:00 -4,4 C 75 % 1031,3 hPa 0,0 l/m 6,9 km/h N -8,2 C -5,5 C 20,5 km/h
29.12.2014 23:00 -4,5 C 74 % 1031,8 hPa 0,0 l/m 7,0 km/h N -8,4 C -5,6 C 19,3 km/h
30.12.2014 00:00 -4,4 C 75 % 1032,1 hPa 0,0 l/m 7,2 km/h N -8,2 C -6,0 C 22,1 km/h
30.12.2014 01:00 -4,9 C 78 % 1032,6 hPa 0,0 l/m 7,6 km/h N -8,2 C -6,3 C 22,9 km/h
30.12.2014 02:00 -5,3 C 77 % 1033,0 hPa 0,0 l/m 9,0 km/h N -8,7 C -8,2 C 22,9 km/h
30.12.2014 03:00 -5,3 C 76 % 1033,1 hPa 0,0 l/m 8,0 km/h N -8,8 C -7,1 C 23,7 km/h
30.12.2014 04:00 -5,0 C 74 % 1032,7 hPa 0,0 l/m 10,6 km/h N -8,9 C -9,5 C 30,6 km/h
30.12.2014 05:00 -4,9 C 74 % 1032,5 hPa 0,0 l/m 13,1 km/h N -8,8 C -11,4 C 32,2 km/h
30.12.2014 06:00 -4,7 C 74 % 1032,7 hPa 0,0 l/m 11,4 km/h N -8,6 C -9,9 C 28,2 km/h
30.12.2014 07:00 -4,9 C 74 % 1033,0 hPa 0,0 l/m 11,0 km/h N -8,8 C -9,7 C 25,7 km/h
30.12.2014 08:00 -4,4 C 73 % 1033,1 hPa 0,0 l/m 12,2 km/h N -8,5 C -10,2 C 30,2 km/h
30.12.2014 09:00 -4,3 C 74 % 1033,5 hPa 0,0 l/m 9,6 km/h N -8,2 C -7,8 C 24,9 km/h
30.12.2014 10:00 -4,0 C 73 % 1033,7 hPa 0,0 l/m 10,0 km/h N -8,0 C -7,9 C 23,7 km/h
30.12.2014 11:00 -3,2 C 70 % 1033,3 hPa 0,0 l/m 6,5 km/h N -7,9 C -3,7 C 20,5 km/h
30.12.2014 12:00 -2,3 C 66 % 1032,7 hPa 0,0 l/m 7,3 km/h N -7,7 C -3,3 C 20,5 km/h
30.12.2014 13:00 -2,5 C 66 % 1032,4 hPa 0,0 l/m 5,2 km/h N -8,0 C -2,5 C 18,9 km/h
30.12.2014 14:00 -2,7 C 67 % 1032,3 hPa 0,0 l/m 6,0 km/h N -7,9 C -2,9 C 18,9 km/h
30.12.2014 15:00 -3,2 C 68 % 1032,7 hPa 0,0 l/m 2,6 km/h N -8,3 C -3,2 C 10,9 km/h
30.12.2014 16:00 -4,2 C 71 % 1033,0 hPa 0,0 l/m 1,5 km/h N -8,7 C -4,2 C 7,2 km/h
30.12.2014 17:00 -4,8 C 74 % 1033,0 hPa 0,0 l/m 5,7 km/h N -8,7 C -5,1 C 15,7 km/h
30.12.2014 18:00 -4,9 C 75 % 1033,4 hPa 0,0 l/m 2,7 km/h N -8,7 C -4,9 C 10,1 km/h
30.12.2014 19:00 -5,6 C 77 % 1033,6 hPa 0,0 l/m 2,2 km/h N -9,0 C -5,6 C 6,8 km/h
30.12.2014 20:00 -5,9 C 78 % 1033,9 hPa 0,0 l/m 0,7 km/h N -9,1 C -5,9 C 4,8 km/h
30.12.2014 21:00 -7,1 C 79 % 1034,5 hPa 0,0 l/m 0,0 km/h N -10,2 C -7,1 C 1,2 km/h
30.12.2014 22:00 -9,0 C 80 % 1034,9 hPa 0,0 l/m 0,0 km/h N -11,8 C -9,0 C 0,0 km/h
30.12.2014 23:00 -9,6 C 82 % 1034,7 hPa 0,0 l/m 0,0 km/h N -12,0 C -9,6 C 0,0 km/h
31.12.2014 00:00 -8,7 C 84 % 1034,4 hPa 0,0 l/m 0,0 km/h N -10,9 C -8,7 C 0,4 km/h
31.12.2014 01:00 -8,2 C 85 % 1034,4 hPa 0,0 l/m 0,0 km/h N -10,3 C -8,2 C 0,0 km/h
31.12.2014 02:00 -8,1 C 85 % 1034,9 hPa 0,0 l/m 0,0 km/h N -10,2 C -8,1 C 0,0 km/h
31.12.2014 03:00 -7,9 C 85 % 1035,2 hPa 0,0 l/m 0,0 km/h N -10,0 C -7,9 C 0,0 km/h
31.12.2014 04:00 -7,9 C 85 % 1035,4 hPa 0,0 l/m 0,1 km/h N -9,9 C -7,9 C 2,0 km/h
31.12.2014 05:00 -7,8 C 85 % 1035,4 hPa 0,0 l/m 0,0 km/h N -10,0 C -7,8 C 0,0 km/h
31.12.2014 06:00 -7,8 C 86 % 1035,6 hPa 0,0 l/m 0,0 km/h N -9,8 C -7,8 C 0,0 km/h
31.12.2014 07:00 -7,8 C 84 % 1036,2 hPa 0,0 l/m 0,1 km/h N -10,0 C -7,8 C 0,8 km/h
31.12.2014 08:00 -7,6 C 84 % 1036,8 hPa 0,0 l/m 0,6 km/h N -9,8 C -7,6 C 4,8 km/h
31.12.2014 09:00 -6,6 C 83 % 1037,1 hPa 0,0 l/m 0,8 km/h N -9,0 C -6,6 C 4,4 km/h
31.12.2014 10:00 -5,5 C 81 % 1037,3 hPa 0,0 l/m 0,5 km/h N -8,3 C -5,5 C 3,2 km/h
31.12.2014 11:00 -4,3 C 73 % 1037,3 hPa 0,0 l/m 0,8 km/h N -8,4 C -4,3 C 5,6 km/h
31.12.2014 12:00 -3,0 C 69 % 1036,9 hPa 0,0 l/m 2,4 km/h N -8,0 C -3,0 C 7,2 km/h
31.12.2014 13:00 -3,0 C 68 % 1036,9 hPa 0,0 l/m 2,4 km/h N -8,1 C -3,0 C 8,9 km/h
31.12.2014 14:00 -3,0 C 67 % 1036,9 hPa 0,0 l/m 1,6 km/h N -8,2 C -3,0 C 7,2 km/h
31.12.2014 15:00 -4,0 C 66 % 1037,1 hPa 0,0 l/m 2,4 km/h N -9,4 C -4,0 C 11,3 km/h
31.12.2014 16:00 -4,8 C 70 % 1037,2 hPa 0,0 l/m 3,2 km/h N -9,4 C -4,8 C 13,7 km/h
31.12.2014 17:00 -4,8 C 71 % 1037,1 hPa 0,0 l/m 1,6 km/h N -9,3 C -4,8 C 8,9 km/h
31.12.2014 18:00 -4,6 C 72 % 1037,5 hPa 0,0 l/m 0,3 km/h N -8,9 C -4,6 C 3,6 km/h
31.12.2014 19:00 -4,6 C 72 % 1037,5 hPa 0,0 l/m 0,7 km/h N -8,9 C -4,6 C 4,8 km/h
31.12.2014 20:00 -4,8 C 78 % 1037,8 hPa 0,0 l/m 0,5 km/h N -8,1 C -4,8 C 3,6 km/h
31.12.2014 21:00 -4,9 C 81 % 1037,8 hPa 0,0 l/m 0,4 km/h N -7,7 C -4,9 C 4,0 km/h
31.12.2014 22:00 -4,8 C 82 % 1037,2 hPa 0,0 l/m 0,3 km/h N -7,3 C -4,8 C 2,8 km/h
31.12.2014 23:00 -4,8 C 83 % 1036,9 hPa 0,0 l/m 0,1 km/h N -7,2 C -4,8 C 1,2 km/h
01.01.2015 00:00 -4,7 C 83 % 1036,5 hPa 0,0 l/m 0,1 km/h N -7,1 C -4,7 C 1,6 km/h
01.01.2015 01:00 -4,7 C 83 % 1036,4 hPa 0,0 l/m 0,5 km/h N -7,1 C -4,7 C 3,6 km/h
01.01.2015 02:00 -4,5 C 82 % 1036,5 hPa 0,0 l/m 0,3 km/h N -7,1 C -4,5 C 2,0 km/h
01.01.2015 03:00 -4,2 C 81 % 1036,3 hPa 0,0 l/m 0,2 km/h N -6,9 C -4,2 C 3,6 km/h
01.01.2015 04:00 -4,0 C 80 % 1035,9 hPa 0,0 l/m 0,4 km/h N -7,0 C -4,0 C 3,2 km/h
01.01.2015 05:00 -3,8 C 79 % 1035,8 hPa 0,0 l/m 0,0 km/h N -6,9 C -3,8 C 1,2 km/h
01.01.2015 06:00 -3,5 C 81 % 1035,8 hPa 0,0 l/m 0,4 km/h N -6,4 C -3,5 C 3,2 km/h
01.01.2015 07:00 0,9 C 83 % 1035,2 hPa 0,0 l/m 6,9 km/h N -1,7 C -0,5 C 20,5 km/h
01.01.2015 08:00 2,3 C 80 % 1035,5 hPa 0,0 l/m 5,7 km/h N -0,7 C 2,3 C 18,9 km/h
01.01.2015 09:00 2,8 C 79 % 1035,4 hPa 0,3 l/m 5,8 km/h N -0,6 C 2,4 C 18,9 km/h
01.01.2015 10:00 2,9 C 78 % 1035,7 hPa 0,8 l/m 7,3 km/h N -0,6 C 1,7 C 22,5 km/h
01.01.2015 11:00 3,0 C 79 % 1035,4 hPa 0,5 l/m 10,7 km/h N -0,3 C -0,5 C 25,4 km/h
01.01.2015 12:00 3,3 C 80 % 1035,1 hPa 0,5 l/m 7,3 km/h N 0,2 C 2,2 C 20,9 km/h
01.01.2015 13:00 3,3 C 82 % 1035,1 hPa 0,3 l/m 9,7 km/h N 0,5 C 0,5 C 25,8 km/h
01.01.2015 14:00 3,5 C 83 % 1035,2 hPa 0,3 l/m 9,4 km/h N 0,9 C 0,8 C 24,9 km/h
01.01.2015 15:00 3,6 C 83 % 1034,9 hPa 0,0 l/m 7,3 km/h N 0,9 C 2,8 C 18,9 km/h
01.01.2015 16:00 3,7 C 83 % 1034,8 hPa 0,0 l/m 5,1 km/h N 1,0 C 3,0 C 16,9 km/h
01.01.2015 17:00 4,0 C 82 % 1035,1 hPa 0,0 l/m 2,6 km/h N 1,2 C 4,0 C 8,4 km/h
01.01.2015 18:00 4,8 C 80 % 1034,7 hPa 0,0 l/m 5,8 km/h N 1,6 C 4,7 C 20,1 km/h
01.01.2015 19:00 5,2 C 78 % 1034,5 hPa 0,0 l/m 1,0 km/h N 1,7 C 5,2 C 5,6 km/h
01.01.2015 20:00 4,5 C 79 % 1034,5 hPa 0,0 l/m 0,5 km/h N 1,2 C 4,5 C 4,0 km/h
01.01.2015 21:00 3,8 C 81 % 1034,5 hPa 0,0 l/m 0,3 km/h N 0,8 C 3,8 C 3,2 km/h
01.01.2015 22:00 4,3 C 81 % 1033,7 hPa 0,0 l/m 0,7 km/h N 1,4 C 4,3 C 4,8 km/h
01.01.2015 23:00 4,2 C 80 % 1033,2 hPa 0,0 l/m 0,5 km/h N 1,1 C 4,2 C 3,6 km/h
02.01.2015 00:00 2,8 C 82 % 1033,3 hPa 0,0 l/m 0,0 km/h N 0,1 C 2,8 C 0,8 km/h
02.01.2015 01:00 2,3 C 83 % 1033,2 hPa 0,0 l/m 0,0 km/h N -0,3 C 2,3 C 0,0 km/h
02.01.2015 02:00 0,9 C 83 % 1032,9 hPa 0,0 l/m 0,0 km/h N -1,7 C 0,9 C 0,0 km/h
02.01.2015 03:00 -0,4 C 84 % 1032,1 hPa 0,0 l/m 0,0 km/h N -2,7 C -0,4 C 0,0 km/h
02.01.2015 04:00 -1,1 C 85 % 1031,4 hPa 0,0 l/m 0,0 km/h N -3,3 C -1,1 C 0,0 km/h
02.01.2015 05:00 -1,5 C 85 % 1030,6 hPa 0,0 l/m 0,2 km/h N -3,6 C -1,5 C 0,8 km/h
02.01.2015 06:00 -1,7 C 88 % 1030,3 hPa 0,3 l/m 0,0 km/h N -3,5 C -1,7 C 0,4 km/h
02.01.2015 07:00 -1,6 C 86 % 1030,6 hPa 0,0 l/m 0,1 km/h N -3,6 C -1,6 C 1,2 km/h
02.01.2015 08:00 0,1 C 85 % 1030,5 hPa 0,0 l/m 0,2 km/h N -2,2 C 0,1 C 3,2 km/h
02.01.2015 09:00 0,7 C 85 % 1030,0 hPa 0,0 l/m 1,1 km/h N -1,6 C 0,7 C 4,8 km/h
02.01.2015 10:00 1,5 C 84 % 1029,1 hPa 0,0 l/m 1,0 km/h N -0,9 C 1,5 C 6,0 km/h
02.01.2015 11:00 4,9 C 81 % 1028,3 hPa 0,0 l/m 2,0 km/h N 1,9 C 4,9 C 8,0 km/h
02.01.2015 12:00 5,4 C 79 % 1027,2 hPa 0,0 l/m 1,6 km/h N 2,0 C 5,4 C 7,6 km/h
02.01.2015 13:00 5,7 C 78 % 1026,0 hPa 0,0 l/m 1,7 km/h N 2,1 C 5,7 C 8,9 km/h
02.01.2015 14:00 5,8 C 76 % 1025,4 hPa 0,0 l/m 2,4 km/h N 1,8 C 5,8 C 12,1 km/h
02.01.2015 15:00 9,7 C 55 % 1025,3 hPa 0,0 l/m 10,6 km/h N 1,1 C 6,9 C 31,8 km/h
02.01.2015 16:00 7,9 C 70 % 1025,3 hPa 0,5 l/m 16,9 km/h N 2,6 C 1,7 C 45,9 km/h
02.01.2015 17:00 7,1 C 77 % 1026,0 hPa 0,5 l/m 22,2 km/h N 3,3 C -1,1 C 50,3 km/h
02.01.2015 18:00 6,8 C 79 % 1027,1 hPa 0,3 l/m 16,0 km/h N 3,4 C 0,8 C 41,5 km/h
02.01.2015 19:00 6,5 C 79 % 1027,5 hPa 0,3 l/m 12,9 km/h N 3,2 C 2,0 C 33,0 km/h
02.01.2015 20:00 5,8 C 83 % 1028,4 hPa 0,3 l/m 10,3 km/h N 3,1 C 2,8 C 31,0 km/h
02.01.2015 21:00 6,0 C 81 % 1028,9 hPa 0,0 l/m 7,1 km/h N 3,0 C 5,3 C 23,3 km/h
02.01.2015 22:00 6,1 C 77 % 1029,4 hPa 0,0 l/m 8,5 km/h N 2,4 C 4,4 C 23,3 km/h
02.01.2015 23:00 5,7 C 77 % 1029,6 hPa 0,0 l/m 4,7 km/h N 1,9 C 5,7 C 18,1 km/h
03.01.2015 00:00 5,3 C 76 % 1029,1 hPa 0,0 l/m 9,4 km/h N 1,4 C 2,8 C 23,8 km/h
03.01.2015 01:00 5,3 C 75 % 1029,4 hPa 0,0 l/m 15,8 km/h N 1,2 C -1,0 C 38,2 km/h
03.01.2015 02:00 5,2 C 75 % 1029,3 hPa 0,0 l/m 18,0 km/h N 1,0 C -2,1 C 41,0 km/h
03.01.2015 03:00 5,2 C 72 % 1028,7 hPa 0,0 l/m 18,6 km/h N 0,6 C -2,3 C 43,9 km/h
03.01.2015 04:00 5,2 C 70 % 1028,3 hPa 0,0 l/m 20,4 km/h N 0,2 C -3,0 C 46,7 km/h
03.01.2015 05:00 4,9 C 69 % 1028,7 hPa 0,0 l/m 18,0 km/h N -0,2 C -2,5 C 43,5 km/h
03.01.2015 06:00 4,5 C 69 % 1029,3 hPa 0,0 l/m 13,2 km/h N -0,7 C -0,4 C 34,6 km/h
03.01.2015 07:00 4,2 C 68 % 1029,6 hPa 0,0 l/m 11,2 km/h N -1,1 C 0,4 C 33,4 km/h
03.01.2015 08:00 4,1 C 67 % 1029,9 hPa 0,0 l/m 12,3 km/h N -1,6 C -0,4 C 32,2 km/h
03.01.2015 09:00 4,5 C 64 % 1029,5 hPa 0,0 l/m 9,3 km/h N -1,7 C 2,1 C 27,3 km/h
03.01.2015 10:00 5,5 C 62 % 1029,2 hPa 0,0 l/m 10,3 km/h N -1,2 C 2,5 C 26,1 km/h
03.01.2015 11:00 5,6 C 60 % 1028,3 hPa 0,0 l/m 9,3 km/h N -1,4 C 3,4 C 27,0 km/h
03.01.2015 12:00 6,4 C 56 % 1026,5 hPa 0,0 l/m 5,4 km/h N -1,9 C 6,3 C 18,1 km/h
03.01.2015 13:00 7,1 C 50 % 1024,8 hPa 0,0 l/m 3,1 km/h N -2,5 C 7,1 C 12,9 km/h
03.01.2015 14:00 7,0 C 48 % 1023,6 hPa 0,0 l/m 1,4 km/h N -3,2 C 7,0 C 8,0 km/h
03.01.2015 15:00 6,4 C 54 % 1022,8 hPa 0,0 l/m 0,2 km/h N -2,3 C 6,4 C 1,6 km/h
03.01.2015 16:00 6,4 C 55 % 1021,6 hPa 0,0 l/m 6,3 km/h N -2,0 C 5,8 C 17,3 km/h
03.01.2015 17:00 5,6 C 63 % 1020,5 hPa 0,0 l/m 3,0 km/h N -1,0 C 5,6 C 9,3 km/h
03.01.2015 18:00 4,5 C 76 % 1019,4 hPa 0,8 l/m 0,9 km/h N 0,6 C 4,5 C 4,4 km/h
03.01.2015 19:00 3,4 C 82 % 1018,8 hPa 2,1 l/m 0,4 km/h N 0,6 C 3,4 C 2,0 km/h
03.01.2015 20:00 2,6 C 85 % 1017,6 hPa 1,3 l/m 0,2 km/h N 0,3 C 2,6 C 2,4 km/h
03.01.2015 21:00 1,9 C 85 % 1016,4 hPa 0,8 l/m 0,1 km/h N -0,4 C 1,9 C 1,6 km/h
03.01.2015 22:00 1,4 C 86 % 1015,2 hPa 0,0 l/m 0,0 km/h N -0,7 C 1,4 C 0,0 km/h
03.01.2015 23:00 0,7 C 86 % 1014,2 hPa 0,0 l/m 0,0 km/h N -1,4 C 0,7 C 0,0 km/h
04.01.2015 00:00 0,4 C 86 % 1014,3 hPa 0,0 l/m 0,0 km/h N -1,6 C 0,4 C 0,0 km/h
04.01.2015 01:00 0,5 C 85 % 1014,5 hPa 0,0 l/m 0,0 km/h N -1,7 C 0,5 C 0,0 km/h
04.01.2015 02:00 1,0 C 84 % 1015,9 hPa 1,6 l/m 3,3 km/h N -1,4 C 0,7 C 8,1 km/h
04.01.2015 03:00 1,6 C 84 % 1016,9 hPa 2,1 l/m 9,2 km/h N -0,7 C -0,9 C 22,5 km/h
04.01.2015 04:00 2,3 C 86 % 1017,3 hPa 2,6 l/m 12,2 km/h N 0,1 C -2,4 C 31,0 km/h
04.01.2015 05:00 2,8 C 83 % 1017,6 hPa 2,9 l/m 16,2 km/h N 0,2 C -4,2 C 35,8 km/h
04.01.2015 06:00 2,6 C 83 % 1018,2 hPa 2,6 l/m 19,4 km/h N 0,1 C -5,9 C 39,0 km/h
04.01.2015 07:00 2,6 C 84 % 1019,4 hPa 1,6 l/m 14,5 km/h N 0,1 C -3,5 C 39,4 km/h
04.01.2015 08:00 2,9 C 80 % 1020,4 hPa 0,5 l/m 15,1 km/h N -0,2 C -3,4 C 37,4 km/h
04.01.2015 09:00 3,3 C 76 % 1021,7 hPa 0,3 l/m 10,5 km/h N -0,5 C -0,2 C 29,8 km/h
04.01.2015 10:00 3,4 C 76 % 1022,2 hPa 0,0 l/m 12,0 km/h N -0,4 C -0,9 C 31,8 km/h
04.01.2015 11:00 3,6 C 74 % 1022,5 hPa 0,0 l/m 14,5 km/h N -0,6 C -2,3 C 34,2 km/h
04.01.2015 12:00 3,7 C 76 % 1022,5 hPa 0,0 l/m 15,0 km/h N -0,1 C -2,5 C 36,2 km/h
04.01.2015 13:00 3,7 C 76 % 1022,7 hPa 0,0 l/m 15,8 km/h N -0,2 C -2,8 C 35,4 km/h
04.01.2015 14:00 3,5 C 77 % 1022,8 hPa 0,0 l/m 16,3 km/h N -0,2 C -3,4 C 39,0 km/h
04.01.2015 15:00 3,4 C 76 % 1023,0 hPa 0,0 l/m 17,3 km/h N -0,4 C -4,0 C 43,5 km/h
04.01.2015 16:00 3,1 C 78 % 1023,7 hPa 0,0 l/m 14,7 km/h N -0,4 C -3,1 C 35,0 km/h
04.01.2015 17:00 2,5 C 82 % 1024,3 hPa 0,5 l/m 13,3 km/h N -0,3 C -2,9 C 35,8 km/h
04.01.2015 18:00 2,8 C 80 % 1024,5 hPa 0,3 l/m 11,8 km/h N -0,4 C -1,7 C 31,8 km/h
04.01.2015 19:00 1,5 C 84 % 1025,1 hPa 1,0 l/m 8,2 km/h N -0,8 C -0,2 C 22,5 km/h
04.01.2015 20:00 1,9 C 85 % 1025,3 hPa 0,3 l/m 10,8 km/h N -0,4 C -1,9 C 25,0 km/h
04.01.2015 21:00 2,0 C 82 % 1025,3 hPa 0,0 l/m 8,9 km/h N -0,8 C -0,3 C 23,7 km/h
04.01.2015 22:00 2,3 C 79 % 1025,8 hPa 0,0 l/m 9,6 km/h N -1,0 C -0,6 C 22,5 km/h
04.01.2015 23:00 2,0 C 80 % 1026,5 hPa 0,0 l/m 10,1 km/h N -1,1 C -1,1 C 25,8 km/h
Min-Datum _ 30.12.14 03.01.15 03.01.15 - 30.12.14 - 30.12.14 29.12.14 30.12.14
_ Min-Zeit 23:15 14:15 23:15 - 19:00 - 22:45 03:30 19:00
Minimum _ -9,7 C 47 % 1014,0 hPa - 0,0 km/h - -12,4 C -16,8 C 0,0 km/h
Max-Datum _ 02.01.15 31.12.14 31.12.14 04.01.15 02.01.15 - 02.01.15 02.01.15 02.01.15
_ Max-Zeit 15:15 06:15 20:45 05:15 17:30 - 18:00 15:00 17:15
Maximum _ 10,3 C 92 % 1038,0 hPa 2,9 l/m 26,0 km/h
N
- 3,7 C 8,1 C 57,9 km/h
N
Durchschnitt _ -0,5 C 77 % 1029,6 hPa #25,7 l/m 6,6 km/h N -4,2 C -2,8 C 18,0 km/h